x

9449880 - Friday Harbor, Wa (frdw1) Weather Station

1:36 - Mon 25th Jul 2016 All times are PDT. -7 hours from GMT.

  • Wind
    2mph
  • Sea Temp 52°f
  • Ar Temp 65°f
  • Sea Pressure 1018.2mb
  • 9449880 - Friday Harbor, Wa
  • 9449880 - Friday Harbor, Wa

More Historic Weather Station data

Upgrade to MSW Pro to gain access to the past 30 days of data for over 8000 Wavebouys and Weather Stations around the globe.

Join Pro

Comparision Forecast

View Surf forecast
   
Seg 07/25 1:36 2
mph
1018.2mb 52f 65f
1:30 1 2 mph 1018.3mb 52f 65f
1:24 2 3 mph 1018.4mb 52f 65f
1:18 1 5 mph 1018.4mb 52f 65f
1:12 2 6 mph 1018.4mb 52f 68f
1:06 3 7 mph 1018.5mb 52f 67f
1:00 6 7 mph 1018.5mb 52f 66f
12:36 7 8 mph 1018.7mb 52f 64f
12:30 7 8 mph 1018.7mb 52f 64f
12:24 5 6 mph 1018.6mb 52f 65f
12:18 2 3 mph 1018.6mb 52f 64f
12:12 1 2 mph 1018.6mb 52f 64f
12:06  -  2 mph 1018.6mb 52f 62f
12:00 1 2 mph 1018.7mb 52f 61f
11:36 2 3 mph 1018.7mb 52f 59f
11:30 2 3 mph 1018.7mb 52f 59f
11:24 2 3 mph 1018.7mb 52f 59f
11:18 2 3 mph 1018.7mb 52f 58f
11:12 2 3 mph 1018.7mb 52f 59f
11:06 1 2 mph 1018.8mb 52f 58f
11:00 1 2 mph 1018.8mb 52f 58f
10:36 2 5 mph 1018.8mb 52f 57f
10:30 3 6 mph 1018.8mb 52f 57f
10:24 3 5 mph 1018.8mb 52f 58f
10:18 3 5 mph 1018.8mb 52f 58f
10:12 1 2 mph 1018.8mb 52f 60f
10:06  -  2 mph 1018.8mb 52f 59f
10:00 3
mph
1018.8mb 52f 58f
9:36 1 2 mph 1018.7mb 52f 57f
9:30 1
mph
1018.6mb 52f 57f
9:24  -  1 mph 1018.6mb 52f 58f
9:18  -  1 mph 1018.6mb 52f 57f
9:12  -  1 mph 1018.7mb 52f 58f
9:06  -  1 mph 1018.7mb 52f 58f
9:00  -  1 mph 1018.6mb 52f 57f
8:36 1 3 mph 1018.5mb 52f 57f
8:30 2
mph
1018.5mb 52f 57f
8:24 1 2 mph 1018.5mb 52f 56f
8:18 1 2 mph 1018.4mb 52f 55f
8:12 2
mph
1018.3mb 52f 56f
8:06 1 2 mph 1018.2mb 52f 56f
8:00 2
mph
1018.2mb 52f 55f
7:36 5 7 mph 1018.2mb 52f 55f
7:30 7
mph
1018.2mb 52f 55f
7:24 6 7 mph 1018.1mb 52f 55f
7:18 6 7 mph 1018mb 52f 55f
7:12 5 6 mph 1018mb 52f 55f
7:06 5 6 mph 1017.9mb 52f 55f
7:00 6
mph
1017.9mb 52f 55f
6:36 2 5 mph 1017.8mb 52f 55f
6:30 2
mph
1017.8mb 52f 54f
6:24 2 3 mph 1017.8mb 52f 54f
6:18 3
mph
1017.7mb 52f 54f
6:12 2 3 mph 1017.7mb 52f 54f
6:06 1 2 mph 1017.7mb 52f 55f
6:00 1 2 mph 1017.6mb 52f 55f
5:36  -  1 mph 1017.5mb 52f 54f
5:30  -  1 mph 1017.4mb 52f 54f
5:24  -  mph 1017.4mb 52f 54f
5:18  -  mph 1017.4mb 52f 54f
5:12  -  1 mph 1017.4mb 52f 54f
5:06  -  1 mph 1017.4mb 52f 54f
5:00  -  mph 1017.3mb 52f 54f
4:36 3 5 mph 1017.3mb 52f 54f
4:30 3 5 mph 1017.2mb 52f 54f
4:24 3 5 mph 1017.2mb 52f 54f
4:18 2 3 mph 1017.2mb 52f 54f
4:12 1 2 mph 1017.1mb 52f 54f
4:06 2 3 mph 1017.1mb 52f 54f
4:00  -  2 mph 1017.1mb 52f 55f
3:36  -  1 mph 1017.1mb 52f 56f
3:30  -  2 mph 1017mb 52f 56f
3:24  -  mph 1017mb 52f 56f
3:18  -  1 mph 1017mb 52f 56f
3:12  -  2 mph 1017mb 52f 56f
3:06  -  1 mph 1017mb 52f 56f
3:00  -  1 mph 1017mb 52f 56f
2:36  -  1 mph 1016.8mb 52f 56f
2:30  -  1 mph 1016.8mb 52f 56f
2:24  -  1 mph 1016.8mb 52f 56f
2:18  -  1 mph 1016.8mb 52f 56f
2:12  -  mph 1016.8mb 52f 56f
2:06  -  1 mph 1016.8mb 52f 56f
2:00  -  1 mph 1016.8mb 52f 56f
1:36  -  1 mph 1016.8mb 52f 56f
1:30  -  1 mph 1016.8mb 52f 56f
1:24 1 2 mph 1016.8mb 52f 56f
1:18 1 2 mph 1016.7mb 52f 56f
1:12  -  mph 1016.7mb 52f 56f
1:06  -  1 mph 1016.8mb 52f 56f
1:00  -  1 mph 1016.8mb 52f 56f
12:36 2 5 mph 1016.8mb 52f 56f
12:30 3 5 mph 1016.8mb 52f 57f
12:24 2 5 mph 1016.8mb 52f 57f
12:18 2 3 mph 1016.8mb 52f 57f
12:12 2 3 mph 1016.8mb 52f 57f
12:06 1 2 mph 1016.8mb 52f 57f
12:00 2 3 mph 1016.8mb 52f 57f
Dom 07/24 11:36 1 2 mph 1016.8mb 52f 56f
11:30 1 2 mph 1016.8mb 52f 55f
11:24  -  1 mph 1016.8mb 52f 56f
11:18  -  mph 1016.8mb 52f 55f
11:12  -  1 mph 1016.9mb 52f 55f
11:06 1 2 mph 1016.9mb 52f 55f
11:00 1 2 mph 1016.9mb 52f 55f
10:36  -  2 mph 1017mb 52f 56f
10:30 1 2 mph 1017mb 52f 55f
10:24 2 3 mph 1017mb 52f 56f
10:18 2 3 mph 1017.1mb 52f 56f
10:12 1 2 mph 1017.1mb 52f 56f
10:06 2 3 mph 1017.1mb 52f 56f
10:00 2
mph
1017.1mb 52f 56f
9:36 1 5 mph 1017.1mb 52f 60f
9:30 3 5 mph 1017mb 52f 60f
9:24 2 5 mph 1017mb 52f 60f
9:18 3 5 mph 1016.9mb 52f 60f
9:12 1 3 mph 1016.9mb 52f 58f
9:06 1 2 mph 1016.9mb 52f 58f
9:00 2
mph
1016.9mb 52f 58f
8:36 3 5 mph 1016.8mb 52f 58f
8:30 5 6 mph 1016.8mb 52f 57f
8:24 5 6 mph 1016.8mb 52f 58f
8:18 5 6 mph 1016.8mb 52f 59f
8:12 5 6 mph 1016.8mb 52f 59f
8:06 5 6 mph 1016.8mb 52f 59f
8:00 5
mph
1016.8mb 52f 60f
7:36 3
mph
1016.7mb 52f 61f
7:30 2 7 mph 1016.7mb 52f 65f
7:24 7 8 mph 1016.7mb 52f 71f
7:18 7 8 mph 1016.8mb 52f 71f
7:12 6 9 mph 1016.8mb 52f 71f
7:06 9 10 mph 1016.8mb 52f 71f
7:00 7 9 mph 1016.8mb 52f 71f
6:36 9 10 mph 1017mb 52f 71f
6:30 8 10 mph 1017mb 52f 69f
6:24 7 10 mph 1017.1mb 52f 70f
6:18 7 9 mph 1017.1mb 52f 70f
6:12 7 9 mph 1017.2mb 52f 69f
6:06 8 9 mph 1017.3mb 52f 70f
6:00 8 10 mph 1017.3mb 52f 70f
5:36  -  2 mph 1017.6mb 53f 65f
5:30 3
mph
1017.7mb 53f 63f
5:24 3
mph
1017.7mb 53f 65f
5:18 3 6 mph 1017.8mb 53f 64f
5:12 5 6 mph 1017.8mb 53f 63f
5:06 5 6 mph 1017.8mb 53f 63f
5:00 5 6 mph 1017.9mb 53f 65f
4:36 5 6 mph 1018.2mb 53f 66f
4:30 5 6 mph 1018.2mb 53f 65f
4:24 6
mph
1018.3mb 53f 64f
4:18 3 5 mph 1018.4mb 53f 64f
4:12 3 6 mph 1018.4mb 53f 64f
4:06 5 7 mph 1018.4mb 53f 64f
4:00  -  3 mph 1018.5mb 53f 69f
3:36 1 8 mph 1018.5mb 53f 68f
3:30 8 9 mph 1018.5mb 53f 70f
3:24 6 9 mph 1018.5mb 53f 70f
3:18 7 9 mph 1018.6mb 53f 71f
3:12 7 8 mph 1018.7mb 53f 71f
3:06 7 10 mph 1018.7mb 53f 70f
3:00 8 9 mph 1018.8mb 53f 70f
2:54 6 8 mph 1018.8mb 53f 68f
2:48 3 6 mph 1018.8mb 53f 69f
2:36  -  2 mph 1018.9mb 53f 68f
2:30 2 5 mph 1019mb 53f 67f
2:24 5
mph
1019mb 53f 65f
2:18 2 5 mph 1019.2mb 53f 67f
2:12 5
mph
1019.2mb 53f 64f
2:06 5 6 mph 1019.2mb 53f 66f
2:00 5 6 mph 1019.2mb 53f 67f
1:54 3 5 mph 1019.2mb 53f 66f
1:48 3 5 mph 1019.3mb 53f 66f
1:36 5 6 mph 1019.3mb 52f 66f
1:30 5 6 mph 1019.4mb 52f 66f
1:24 5
mph
1019.5mb 52f 67f
1:18 5
mph
1019.6mb 52f 66f
1:12 3 5 mph 1019.7mb 53f 66f
1:06 3 5 mph 1019.7mb 53f 65f
1:00 3 5 mph 1019.7mb 52f 65f
12:54 5
mph
1019.8mb 52f 65f
12:48 3 5 mph 1019.8mb 52f 65f
12:36 2 5 mph 1020mb 52f 64f
12:30 3 5 mph 1019.9mb 52f 62f
12:24 3
mph
1019.9mb 52f 62f
12:18  -  3 mph 1019.9mb 52f 65f
12:12  -  2 mph 1020mb 52f 64f
12:06 2 3 mph 1020.1mb 52f 61f
12:00 1 2 mph 1020.1mb 52f 62f
11:54 2 3 mph 1020.2mb 52f 61f
11:48 3 5 mph 1020.2mb 52f 60f
11:36 3
mph
1020.2mb 52f 59f
11:30 3 5 mph 1020.3mb 52f 60f
11:24 1 2 mph 1020.3mb 52f 61f
11:18 2
mph
1020.4mb 52f 61f
11:12 2 3 mph 1020.4mb 52f 60f
11:06 2 3 mph 1020.4mb 52f 61f
11:00 2 3 mph 1020.4mb 52f 60f
10:54 3
mph
1020.3mb 52f 60f
10:48 2 3 mph 1020.4mb 52f 60f
10:36 3
mph
1020.4mb 52f 61f
10:30 3
mph
1020.4mb 52f 61f
10:24 3
mph
1020.5mb 52f 60f
10:18 3
mph
1020.6mb 52f 61f
10:12 3 5 mph 1020.6mb 52f 61f
10:06 3
mph
1020.6mb 52f 61f
10:00 3
mph
1020.6mb 52f 61f
9:54 3
mph
1020.6mb 52f 61f
9:48 3 5 mph 1020.7mb 52f 60f
9:36 5 6 mph 1020.9mb 52f 57f
9:30 5 6 mph 1020.9mb 52f 57f
9:24 3
mph
1021mb 52f 57f
9:18 3 5 mph 1021mb 52f 56f
9:12 3
mph
1021mb 52f 56f
9:06 2
mph
1021.1mb 52f 58f
9:00 1 2 mph 1021.1mb 52f 57f
8:54 1
mph
1021mb 52f 56f
8:48 1
mph
1021mb 52f 56f
8:36 1 2 mph 1021mb 52f 55f
8:30 1 2 mph 1021mb 52f 55f
8:24 1 2 mph 1021mb 52f 55f
8:18 2 3 mph 1020.9mb 52f 54f
8:12 2 3 mph 1021mb 52f 54f
8:06 2
mph
1020.9mb 52f 55f
8:00 1 2 mph 1021mb 52f 55f
7:54 2
mph
1021mb 52f 55f
7:48 2 3 mph 1021mb 52f 55f
7:36 1 2 mph 1021.1mb 52f 56f
7:30 1
mph
1021mb 52f 57f
7:24  -  1 mph 1021mb 52f 58f
7:18  -  mph 1021mb 52f 59f
7:12  -  mph 1021mb 52f 58f
7:06  -  mph 1021mb 52f 57f
7:00  -  1 mph 1021mb 52f 56f
6:54 1
mph
1021.1mb 52f 54f
6:48  -  1 mph 1021.1mb 52f 55f
6:36 1 2 mph 1021mb 52f 54f
6:30  -  1 mph 1021mb 52f 55f
6:24  -  1 mph 1021mb 52f 54f
6:18 1 2 mph 1021mb 52f 52f
6:12  -  1 mph 1021mb 52f 54f
6:06  -  mph 1021mb 52f 54f
6:00  -  mph 1021mb 52f 53f
5:54  -  mph 1021mb 52f 53f
5:48  -  1 mph 1021mb 52f 52f
5:36  -  mph 1021mb 52f 52f
5:30  -  1 mph 1021mb 52f 52f
5:24  -  mph 1021mb 52f 52f
5:18  -  1 mph 1021mb 52f 52f
5:12  -  1 mph 1021mb 52f 52f
5:06  -  1 mph 1021.1mb 52f 51f
5:00  -  mph 1021mb 52f 51f
4:54  -  1 mph 1021mb 52f 51f
4:48  -  mph 1021mb 52f 51f
4:36  -  mph 1021.1mb 52f 51f
4:30  -  mph 1021.1mb 52f 52f
4:24  -  1 mph 1021.1mb 52f 52f
4:18  -  1 mph 1021.2mb 52f 52f
4:12  -  1 mph 1021.2mb 52f 52f
4:06  -  1 mph 1021.3mb 52f 52f
4:00  -  1 mph 1021.3mb 52f 52f
3:54 1
mph
1021.4mb 52f 52f
3:48  -  1 mph 1021.4mb 52f 51f
3:36 2 3 mph 1021.4mb 52f 51f
3:30 2 3 mph 1021.4mb 52f 52f
3:24 1 2 mph 1021.4mb 52f 52f
3:18  -  2 mph 1021.4mb 52f 52f
3:12 2 3 mph 1021.5mb 52f 52f
3:06 1 2 mph 1021.5mb 52f 53f
3:00  -  1 mph 1021.5mb 52f 53f
2:54  -  1 mph 1021.5mb 52f 53f
2:48  -  2 mph 1021.5mb 52f 53f
2:36  -  1 mph 1021.6mb 52f 53f
2:30  -  1 mph 1021.6mb 52f 53f
2:24  -  1 mph 1021.7mb 52f 54f
2:18  -  1 mph 1021.7mb 52f 54f
2:12  -  mph 1021.8mb 52f 53f
2:06  -  1 mph 1021.8mb 52f 53f
2:00  -  1 mph 1021.9mb 52f 53f
1:54  -  1 mph 1021.9mb 52f 54f
1:48 1 2 mph 1022mb 52f 54f
1:36 1 3 mph 1022mb 52f 54f
1:30 1 2 mph 1022.1mb 52f 54f
1:24  -  2 mph 1022.1mb 52f 54f
1:18  -  2 mph 1022.1mb 52f 54f
1:12  -  1 mph 1022.2mb 52f 54f
1:06  -  2 mph 1022.2mb 52f 54f
1:00 1 2 mph 1022.2mb 52f 54f
12:54  -  1 mph 1022.2mb 52f 54f
12:48 1 2 mph 1022.3mb 52f 54f
12:36  -  1 mph 1022.4mb 52f 54f
12:30 1 2 mph 1022.4mb 52f 54f
12:24  -  2 mph 1022.4mb 52f 54f
12:18  -  1 mph 1022.3mb 52f 54f
12:12  -  1 mph 1022.4mb 52f 54f
12:06  -  1 mph 1022.5mb 52f 55f
12:00  -  1 mph 1022.6mb 52f 54f
Sáb 07/23 11:54  -  1 mph 1022.6mb 52f 55f
11:48  -  mph 1022.6mb 52f 55f
11:36  -  mph 1022.7mb 52f 55f
11:30  -  1 mph 1022.8mb 52f 55f
11:24 1 2 mph 1022.8mb 52f 55f
11:18  -  2 mph 1022.8mb 52f 55f
11:12  -  5 mph 1022.8mb 52f 55f
11:06 3 5 mph 1022.9mb 52f 55f
11:00 3 5 mph 1022.9mb 52f 55f
10:54 3 5 mph 1022.9mb 52f 55f
10:48 2 3 mph 1022.8mb 52f 55f
10:36 2 3 mph 1022.9mb 52f 55f
10:30 1 5 mph 1023mb 52f 54f
10:24 3 6 mph 1023mb 52f 54f
10:18 2 6 mph 1022.9mb 52f 54f
10:12 3 6 mph 1022.9mb 52f 54f
10:06 2 3 mph 1022.9mb 52f 54f
10:00 2
mph
1022.9mb 52f 54f
9:54  -  3 mph 1023mb 52f 55f
9:48 1 3 mph 1023mb 52f 55f
9:36 2 3 mph 1023mb 52f 55f
9:30 3
mph
1023mb 52f 55f
9:24 2 3 mph 1023mb 52f 55f
9:18 2 3 mph 1023mb 52f 55f
9:12 2 3 mph 1023mb 52f 55f
9:06 1 3 mph 1023mb 52f 56f
9:00 3 6 mph 1023mb 52f 56f
8:54 2 3 mph 1023mb 52f 56f
8:48 3 5 mph 1023mb 52f 56f
8:36 3 5 mph 1023mb 52f 56f
8:30 3 5 mph 1023mb 52f 57f
8:24 3 5 mph 1023mb 52f 58f
8:18 3 5 mph 1023mb 52f 58f
8:12 3 5 mph 1023mb 52f 58f
8:06 1 3 mph 1023mb 52f 59f
8:00 3
mph
1023mb 52f 60f
7:54  -  2 mph 1023.1mb 52f 62f
7:48 1 2 mph 1023.1mb 52f 62f
7:36 1 3 mph 1023.1mb 52f 59f
7:30 3 5 mph 1023.1mb 52f 59f
7:24 3 6 mph 1023.1mb 52f 58f
7:18 3 6 mph 1023mb 52f 58f
7:12 3 5 mph 1023mb 52f 58f
7:06 3
mph
1023.1mb 52f 59f
7:00 2 5 mph 1023.1mb 52f 60f
6:54 2 3 mph 1023.1mb 52f 60f
6:48 3 5 mph 1023.2mb 52f 60f
6:36 7 8 mph 1023.3mb 52f 66f
6:30 6 9 mph 1023.3mb 52f 66f
6:24 6 8 mph 1023.3mb 52f 65f
6:18 7 8 mph 1023.4mb 52f 65f
6:12 6 7 mph 1023.5mb 52f 66f
6:06 6 7 mph 1023.5mb 52f 66f
6:00 6 7 mph 1023.6mb 52f 66f
5:54 5 8 mph 1023.7mb 52f 66f
5:48 6 8 mph 1023.7mb 52f 65f
5:36 5 7 mph 1023.7mb 52f 65f
5:30 3 6 mph 1023.8mb 52f 65f
5:24 5 7 mph 1023.8mb 52f 64f
5:18 3 6 mph 1023.9mb 52f 65f
5:12 3 6 mph 1024mb 52f 66f
5:06 3 6 mph 1024mb 52f 66f
5:00 3 5 mph 1024.1mb 52f 65f
4:54 3 6 mph 1024.1mb 52f 65f
4:48 5 7 mph 1024.2mb 52f 65f
4:36 6 9 mph 1024.3mb 52f -
4:30 6 7 mph 1024.3mb 53f -
4:24 5 6 mph 1024.4mb 53f -
4:18 6 8 mph 1024.5mb 53f -
4:12 6 8 mph 1024.5mb 53f -
4:06 6 11 mph 1024.5mb 53f -
4:00 7 9 mph 1024.6mb 53f -
3:54 6 8 mph 1024.5mb 53f -
3:48 7 10 mph 1024.6mb 53f -
3:36 7 10 mph 1024.6mb 53f 65f
3:30 7 11 mph 1024.6mb 53f 65f
3:24 7 11 mph 1024.7mb 53f 65f
3:18 6 9 mph 1024.7mb 53f 65f
3:12 6 9 mph 1024.7mb 53f 65f
3:06 7 11 mph 1024.7mb 53f 65f
3:00 7 9 mph 1024.7mb 53f 65f
2:54 8 10 mph 1024.7mb 53f 65f
2:48 6 10 mph 1024.7mb 53f 65f
2:36 7 10 mph 1024.7mb 53f 66f
2:30 6 8 mph 1024.6mb 53f 66f
2:24 5 10 mph 1024.6mb 53f 66f
2:18 6 8 mph 1024.6mb 53f 66f
2:12 6 8 mph 1024.6mb 53f 65f
2:06 5 8 mph 1024.6mb 53f 66f
2:00 6 8 mph 1024.6mb 53f 66f
1:54 6 8 mph 1024.6mb 53f 65f
1:48 5 7 mph 1024.6mb 53f 65f
1:36 6 8 mph 1024.6mb 53f 65f
1:30 5 7 mph 1024.6mb 53f 64f
1:24 7 8 mph 1024.6mb 53f 63f
1:18 5 6 mph 1024.6mb 53f 63f
1:12 3 6 mph 1024.6mb 52f 62f
1:06 3 5 mph 1024.6mb 52f 61f
1:00 3 5 mph 1024.7mb 52f 61f
12:54 3 6 mph 1024.6mb 52f 61f
12:48 3 6 mph 1024.6mb 52f 60f
12:36 3
mph
1024.6mb 52f 60f
12:30 2 3 mph 1024.6mb 52f 61f
12:24 3 5 mph 1024.7mb 52f 60f
12:18 3 5 mph 1024.7mb 52f 60f
12:12 5 6 mph 1024.8mb 52f 58f
12:06 5 6 mph 1024.8mb 52f 58f
12:00 5 6 mph 1024.8mb 52f 58f
11:36 5 6 mph 1024.8mb 52f 56f
11:30 6 7 mph 1024.8mb 52f 56f
11:24 6 7 mph 1024.8mb 52f 57f
11:18 6 7 mph 1024.9mb 52f 56f
11:12 6 7 mph 1024.9mb 52f 56f
11:06 3 5 mph 1025mb 52f 56f
11:00 2 6 mph 1025mb 52f 57f
10:54 3 6 mph 1025.1mb 52f 57f
10:48 5 7 mph 1025mb 52f 57f
10:36 3 6 mph 1024.9mb 52f 57f
10:30 3 6 mph 1024.9mb 52f 57f
10:24 3 5 mph 1024.9mb 52f 56f
10:18 3 5 mph 1024.9mb 52f 56f
10:12 3 5 mph 1024.9mb 52f 56f
10:06 2 5 mph 1024.8mb 52f 57f
10:00 3 5 mph 1024.8mb 52f 56f
9:54 2 5 mph 1024.8mb 52f 56f
9:48 3 5 mph 1024.8mb 52f 56f
9:36 5 6 mph 1024.7mb 52f 57f
9:30 3 6 mph 1024.7mb 52f 56f
9:24 3 6 mph 1024.7mb 52f 56f
9:18 3 6 mph 1024.6mb 52f 56f
9:12 3 6 mph 1024.6mb 52f 55f
9:06 2 3 mph 1024.6mb 52f 55f
9:00 2 3 mph 1024.6mb 52f 55f
8:54 3
mph
1024.6mb 52f 55f
8:48 2
mph
1024.5mb 52f 55f
8:36 3 5 mph 1024.5mb 52f 54f
8:30 2 3 mph 1024.4mb 52f 54f
8:24 2 3 mph 1024.4mb 52f 54f
8:18 3 5 mph 1024.3mb 52f 54f
8:12 2 3 mph 1024.3mb 52f 54f
8:06 3
mph
1024.3mb 52f 54f
8:00 3
mph
1024.3mb 52f 54f
7:54 3 5 mph 1024.3mb 52f 54f
7:48 2 3 mph 1024.3mb 52f 54f
7:36 2 3 mph 1024.3mb 52f 54f
7:30 2 3 mph 1024.3mb 52f 54f
7:24 2 3 mph 1024.3mb 52f 53f
7:18 3 5 mph 1024.3mb 52f 53f
7:12 5 6 mph 1024.3mb 52f 53f
7:06 6
mph
1024.3mb 52f 53f
7:00 2 5 mph 1024.3mb 52f 54f
6:36 2 3 mph 1024.2mb 52f 54f
6:30 3 5 mph 1024.2mb 52f 54f
6:24 3 5 mph 1024.2mb 52f 54f
6:18 3
mph
1024.2mb 52f 54f
6:12 2 3 mph 1024.2mb 52f 54f
6:06  -  2 mph 1024.2mb 52f 54f
6:00 1 3 mph 1024.1mb 52f 54f
5:54 1 3 mph 1024.1mb 52f 54f
5:48 3 5 mph 1024.1mb 52f 53f
5:36 3 5 mph 1024.1mb 52f 54f
5:30 2 5 mph 1024.1mb 52f 54f
5:24 2 3 mph 1024.1mb 52f 54f
5:18 2 5 mph 1024mb 52f 54f
5:12 3 5 mph 1024mb 52f 54f
5:06 1 3 mph 1024mb 52f 55f
5:00 2
mph
1023.9mb 52f 55f
4:54  -  1 mph 1023.8mb 52f 55f
4:48  -  3 mph 1023.8mb 52f 55f
4:36  -  2 mph 1023.8mb 52f 56f
4:30  -  2 mph 1023.8mb 52f 56f
4:24 1 3 mph 1023.9mb 52f 56f
4:18  -  5 mph 1023.8mb 52f 56f
4:12 1 5 mph 1023.8mb 52f 56f
4:06 2 7 mph 1023.8mb 52f 56f
4:00 3 9 mph 1023.8mb 52f 56f
3:54 5 9 mph 1023.8mb 52f 56f
3:48 6 10 mph 1023.9mb 52f 56f
3:36 3 8 mph 1023.9mb 52f 56f
3:30 5 10 mph 1024mb 52f 56f
3:24 6 13 mph 1024mb 52f 56f
3:18 7 13 mph 1024mb 52f 56f
3:12 9 14 mph 1024mb 52f 56f
3:06 8 13 mph 1024mb 52f 56f
3:00 9 14 mph 1024.1mb 52f 57f
2:54 7 13 mph 1024.1mb 52f 57f
2:48 7 14 mph 1024.1mb 52f 57f
2:36 9 11 mph 1024mb 52f 57f
2:30 8 10 mph 1024.1mb 52f 57f
2:24 7 10 mph 1024.1mb 52f 58f
2:18 8 13 mph 1024.2mb 52f 58f
2:12 8 10 mph 1024.2mb 52f 58f
2:06 8 11 mph 1024.2mb 52f 58f
2:00 8 11 mph 1024.3mb 52f 58f
1:54 9 11 mph 1024.3mb 52f 58f
1:48 8 9 mph 1024.3mb 52f 59f
1:36 6 10 mph 1024.3mb 52f 59f
1:30 6 9 mph 1024.4mb 52f 59f
1:24 5 7 mph 1024.4mb 52f 59f
1:18 1 3 mph 1024.4mb 52f 58f
1:12  -  1 mph 1024.5mb 52f 57f
1:06  -  2 mph 1024.6mb 52f 57f
1:00  -  2 mph 1024.5mb 52f 57f
12:54 2
mph
1024.5mb 52f 57f
12:48  -  3 mph 1024.5mb 52f 58f
12:36 2 3 mph 1024.5mb 52f 58f
12:30 1 3 mph 1024.5mb 52f 58f
12:24 1 3 mph 1024.5mb 52f 58f
12:18 2 6 mph 1024.6mb 52f 57f
12:12 3 6 mph 1024.6mb 52f 57f
12:06 2 3 mph 1024.5mb 52f 57f
12:00 2
mph
1024.5mb 52f 57f
Sex 07/22 11:54  -  2 mph 1024.6mb 52f 56f
11:48 1 2 mph 1024.6mb 52f 56f
11:36  -  2 mph 1024.6mb 51f 56f
11:30 1 3 mph 1024.6mb 51f 58f
11:24 2 3 mph 1024.5mb 51f 58f
11:18 2 8 mph 1024.5mb 51f 58f
11:12 6 8 mph 1024.5mb 51f 58f
11:06 6 9 mph 1024.5mb 51f 58f
11:00 5 7 mph 1024.5mb 51f 58f
10:54 5 6 mph 1024.5mb 51f 59f
10:48 3 6 mph 1024.5mb 51f 59f
10:36 3 10 mph 1024.5mb 51f 59f
10:30 5 10 mph 1024.5mb 51f 59f
10:24 5 9 mph 1024.6mb 51f 59f
10:18 3 8 mph 1024.7mb 51f 59f
10:12 6 11 mph 1024.7mb 51f 59f
10:06 8 11 mph 1024.6mb 51f 59f
10:00 11 14 mph 1024.6mb 51f 59f
9:54 10 14 mph 1024.5mb 51f 60f
9:48 9 11 mph 1024.5mb 51f 60f
9:36 7 8 mph 1024.4mb 51f 60f
9:30 7 8 mph 1024.3mb 52f 60f
9:24 7 10 mph 1024.3mb 52f 60f
9:18 7 8 mph 1024.2mb 52f 60f
9:12 8 10 mph 1024.2mb 52f 60f
9:06 10 13 mph 1024.2mb 52f 60f
9:00 11 14 mph 1024.2mb 52f 60f
8:54 11 14 mph 1024.2mb 52f 60f
8:48 10 13 mph 1024.1mb 52f 60f
8:36 8 11 mph 1024.1mb 52f 61f
8:30 9 14 mph 1024.1mb 52f 61f
8:24 11 14 mph 1024.2mb 52f 62f
8:18 10 14 mph 1024.1mb 52f 61f
8:12 11 14 mph 1024.2mb 52f 62f
8:06 13 14 mph 1024.1mb 52f 62f
8:00 10 14 mph 1024.1mb 52f 62f
7:54 10 14 mph 1024.1mb 52f 62f
7:48 11 14 mph 1024mb 52f 63f
7:36 11 15 mph 1023.9mb 52f 63f
7:30 11 15 mph 1023.8mb 52f 63f
7:24 14 18 mph 1023.8mb 52f 63f
7:18 15 21 mph 1023.8mb 52f 64f
7:12 16 20 mph 1023.7mb 52f 65f
7:06 14 18 mph 1023.7mb 52f 64f
7:00 11 17 mph 1023.7mb 52f 64f
6:54 13 15 mph 1023.6mb 52f 64f
6:48 13 21 mph 1023.7mb 52f 64f
6:36 18 22 mph 1023.7mb 52f 63f
6:30 17 21 mph 1023.7mb 52f 63f
6:24 17 21 mph 1023.7mb 52f 64f
6:18 16 22 mph 1023.7mb 52f 64f
6:12 20 23 mph 1023.6mb 52f 65f
6:06 16 23 mph 1023.6mb 52f 64f
6:00 16 20 mph 1023.7mb 52f 64f
5:54 20 24 mph 1023.7mb 52f 64f
5:48 17 24 mph 1023.7mb 52f 64f
5:36 16 21 mph 1023.6mb 52f 65f
5:30 20 22 mph 1023.5mb 52f 64f
5:24 20 23 mph 1023.5mb 52f 64f
5:18 16 20 mph 1023.5mb 52f 65f
5:12 15 20 mph 1023.5mb 52f 65f
5:06 16 20 mph 1023.4mb 52f 65f
5:00 20 28 mph 1023.5mb 52f 64f
4:54 21 24 mph 1023.5mb 52f 64f
4:48 21 24 mph 1023.6mb 52f 64f
4:36 21 26 mph 1023.6mb 52f 64f
4:30 20 25 mph 1023.6mb 52f 64f
4:24 18 22 mph 1023.6mb 52f 64f
4:18 18 22 mph 1023.6mb 52f 65f
4:12 18 22 mph 1023.6mb 53f 65f
4:06 17 26 mph 1023.6mb 53f 65f
4:00 21 25 mph 1023.6mb 53f 65f
3:54 18 22 mph 1023.5mb 53f 66f
3:48 21 28 mph 1023.5mb 53f 66f
3:36 22 28 mph 1023.7mb 53f 65f
3:30 21 28 mph 1023.6mb 53f 65f
3:24 21 26 mph 1023.6mb 53f 65f
3:18 18 22 mph 1023.5mb 53f 66f
3:12 16 22 mph 1023.5mb 53f 66f
3:06 21 24 mph 1023.5mb 53f 65f
3:00 18 23 mph 1023.5mb 53f 66f
2:54 21 24 mph 1023.5mb 53f 66f
2:48 20 24 mph 1023.4mb 53f 67f
2:36 21 26 mph 1023.4mb 53f 67f
2:30 17 22 mph 1023.3mb 53f 67f
2:24 17 22 mph 1023.3mb 53f 68f
2:18 17 22 mph 1023.3mb 53f 67f
2:12 21 28 mph 1023.3mb 53f 67f
2:06 23 28 mph 1023.2mb 53f 67f
2:00 17 26 mph 1023.2mb 53f 67f
1:54 22 26 mph 1023.1mb 53f 68f
1:48 17 22 mph 1023.1mb 53f 68f
1:36 16 22 mph 1023.1mb 53f 68f
1:30 16 21 mph 1023.1mb 53f 68f
1:24 17 23 mph 1023.1mb 53f 68f
1:18 22 25 mph 1023.1mb 53f 68f
1:12 20 23 mph 1023mb 53f 68f
1:06 17 22 mph 1023mb 53f 68f
1:00 14 23 mph 1022.9mb 53f 70f
12:54 11 21 mph 1022.9mb 53f 70f
12:48 15 22 mph 1022.8mb 53f 70f
12:36 13 21 mph 1022.7mb 53f 70f
12:30 11 22 mph 1022.8mb 53f 69f
12:24 15 25 mph 1022.7mb 53f 69f
12:18 14 23 mph 1022.7mb 53f 68f
12:12 18 24 mph 1022.6mb 53f 68f
12:06 20 23 mph 1022.6mb 53f 67f
12:00 20 24 mph 1022.6mb 53f 67f
11:54 18 22 mph 1022.6mb 53f 67f
11:48 20 25 mph 1022.6mb 52f 67f
11:36 18 22 mph 1022.5mb 53f 66f
11:30 17 22 mph 1022.5mb 53f 66f
11:24 18 24 mph 1022.4mb 53f 65f
11:18 20 24 mph 1022.4mb 53f 65f
11:12 14 20 mph 1022.4mb 53f 65f
11:06 18 23 mph 1022.4mb 52f 65f
11:00 18 23 mph 1022.4mb 52f 65f
10:54 20 25 mph 1022.3mb 52f 64f
10:48 17 24 mph 1022.3mb 52f 64f
10:36 16 22 mph 1022.1mb 52f 64f
10:30 17 23 mph 1022mb 52f 63f
10:24 17 21 mph 1022mb 52f 63f
10:18 16 20 mph 1022mb 52f 63f
10:12 15 18 mph 1022mb 52f 63f
10:06 16 21 mph 1022mb 52f 62f
10:00 13 21 mph 1022mb 52f 62f
9:54 16 20 mph 1022mb 52f 62f
9:48 17 22 mph 1022mb 52f 62f
9:36 15 18 mph 1021.9mb 52f 62f
9:30 15 17 mph 1022mb 52f 62f
9:24 14 17 mph 1021.9mb 52f 61f
9:18 16 18 mph 1021.9mb 52f 61f
9:12 14 18 mph 1021.9mb 52f 62f
9:06 15 17 mph 1021.9mb 52f 62f
9:00 14 18 mph 1021.9mb 52f 62f
8:54 14 16 mph 1021.9mb 52f 62f
8:48 14 16 mph 1021.8mb 52f 62f
8:36 11 14 mph 1021.7mb 52f 62f
8:30 9 11 mph 1021.7mb 52f 62f
8:24 10 13 mph 1021.7mb 52f 62f
8:18 10 11 mph 1021.6mb 52f 61f
8:12 8 11 mph 1021.6mb 52f 60f
8:06 9 11 mph 1021.4mb 52f 60f
8:00 8 10 mph 1021.4mb 52f 60f
7:54 8 10 mph 1021.3mb 52f 59f
7:48 9 10 mph 1021.2mb 52f 59f
7:36 9 11 mph 1021.2mb 52f 58f
7:30 8 11 mph 1021.1mb 52f 58f
7:24 7 11 mph 1021mb 52f 58f
7:18 9 17 mph 1020.9mb 52f 58f
7:12 14 18 mph 1020.9mb 52f 58f
7:06 14 20 mph 1020.9mb 52f 58f
7:00 16 21 mph 1020.8mb 52f 58f
6:54 17 21 mph 1020.7mb 52f 59f
6:48 18 23 mph 1020.6mb 52f 59f
6:36 13 18 mph 1020.5mb 52f 60f
6:30 15 21 mph 1020.5mb 52f 60f
6:24 17 21 mph 1020.4mb 52f 60f
6:18 16 22 mph 1020.3mb 52f 60f
6:12 14 17 mph 1020.2mb 52f 60f
6:06 11 20 mph 1020.1mb 52f 60f
6:00 16 22 mph 1020.1mb 52f 60f
5:54 18 23 mph 1020mb 52f 60f
5:48 14 20 mph 1020mb 52f 60f
5:36 16 23 mph 1019.8mb 52f 60f
5:30 18 24 mph 1019.8mb 52f 60f
5:24 18 23 mph 1019.6mb 52f 60f
5:18 17 22 mph 1019.6mb 52f 60f
5:12 14 20 mph 1019.5mb 52f 60f
5:06 10 16 mph 1019.4mb 52f 60f
5:00 11 17 mph 1019.4mb 52f 60f
4:54 14 20 mph 1019.4mb 52f 60f
4:48 9 14 mph 1019.3mb 52f 60f
4:36 5 10 mph 1019.2mb 52f 61f
4:30 7 11 mph 1019.1mb 52f 60f
4:24 7 13 mph 1019mb 52f 60f
4:18 2 8 mph 1019mb 52f 60f
4:12 5 11 mph 1018.8mb 52f 60f
4:06 6 13 mph 1018.8mb 52f 60f
4:00 13 17 mph 1018.8mb 52f 60f
3:54 8 10 mph 1018.7mb 52f 60f
3:48 6 11 mph 1018.7mb 52f 60f
3:36 9 14 mph 1018.6mb 52f 60f
3:30 13 16 mph 1018.7mb 52f 59f
3:24 13 16 mph 1018.8mb 52f 59f
3:18 11 16 mph 1018.8mb 52f 60f
3:12 13 16 mph 1018.8mb 52f 59f
3:06 10 16 mph 1018.8mb 52f 59f
3:00 10 14 mph 1018.7mb 52f 59f
2:54 6 10 mph 1018.7mb 52f 58f
2:48 5 6 mph 1018.8mb 52f 58f
2:36 1 2 mph 1018.7mb 52f 57f
2:30 2 6 mph 1018.8mb 52f 57f
2:24 2 5 mph 1018.6mb 52f 57f
2:18 2
mph
1018.6mb 52f 57f
2:12 1 2 mph 1018.6mb 52f 57f
2:06 3 6 mph 1018.7mb 52f 57f
2:00 2 5 mph 1018.6mb 52f 58f
1:54 2 3 mph 1018.5mb 52f 57f
1:48 2 3 mph 1018.5mb 52f 57f
1:36 3 6 mph 1018.4mb 52f 56f
1:30 2 5 mph 1018.2mb 52f 57f
1:24 3 6 mph 1018.3mb 52f 57f
1:18 6 8 mph 1018.2mb 52f 57f
1:12 7 9 mph 1018.2mb 52f 58f
1:06 3 5 mph 1018mb 52f 58f
1:00 3 5 mph 1017.8mb 52f 59f
12:54 2 3 mph 1017.8mb 52f 59f
12:48 2 5 mph 1017.8mb 52f 59f
12:36 2 5 mph 1017.7mb 52f 60f
12:30  -  5 mph 1017.5mb 52f 62f
12:24 3 7 mph 1017.4mb 52f 62f
12:18 2 5 mph 1017.4mb 52f 62f
12:12  -  3 mph 1017.5mb 52f 60f
12:06 5 6 mph 1017.5mb 52f 60f
12:00 6 8 mph 1017.4mb 52f 63f
Qui 07/21 11:54 6 8 mph 1017.4mb 52f 63f
11:48 5 8 mph 1017.4mb 52f 62f
11:36 2 7 mph 1017.5mb 52f 62f
11:30 7 9 mph 1017.6mb 52f 62f
11:24 2 10 mph 1017.6mb 52f 61f
11:18 8 10 mph 1017.5mb 52f 63f
11:12 6 9 mph 1017.2mb 52f 64f
11:06 5 11 mph 1017.2mb 52f 64f
11:00 6 15 mph 1017.4mb 52f 62f
10:54 10 16 mph 1017.6mb 51f 61f
10:48 7 8 mph 1016.8mb 51f 59f
10:36 5 7 mph 1017.5mb 51f 62f
10:30 6 10 mph 1017.8mb 51f 62f
10:24 8 10 mph 1018mb 51f 62f
10:18 10 16 mph 1018mb 51f 62f
10:12 13 17 mph 1018mb 51f 63f
10:06 5 7 mph 1017.7mb 51f 60f